createdAt,value
2018-02-04T00:00:54.356Z,1.68
2018-02-04T00:03:22.659Z,1.73
2018-02-04T00:05:51.028Z,1.59
2018-02-04T00:08:18.619Z,1.53
2018-02-04T00:10:47.146Z,1.66
2018-02-04T00:13:16.251Z,1.59
2018-02-04T00:15:44.884Z,1.52
2018-02-04T00:18:13.236Z,1.54
2018-02-04T00:20:41.551Z,1.52
2018-02-04T00:23:10.202Z,1.50
2018-02-04T00:25:38.500Z,1.53
2018-02-04T00:28:06.807Z,1.56
2018-02-04T00:30:35.336Z,1.61
2018-02-04T00:33:03.655Z,1.52
2018-02-04T00:35:32.721Z,1.54
2018-02-04T00:38:01.332Z,1.44
2018-02-04T00:40:29.645Z,1.42
2018-02-04T00:42:57.956Z,1.52
2018-02-04T00:45:26.640Z,1.48
2018-02-04T00:47:54.977Z,1.57
2018-02-04T00:50:23.287Z,1.61
2018-02-04T00:52:51.699Z,1.56
2018-02-04T00:55:20.776Z,1.52
2018-02-04T00:57:49.088Z,1.51
2018-02-04T01:00:17.692Z,1.49
2018-02-04T01:02:46.002Z,1.48
2018-02-04T01:05:14.315Z,1.37
2018-02-04T01:07:43.447Z,1.41
2018-02-04T01:10:11.759Z,1.32
2018-02-04T01:12:40.111Z,1.38
2018-02-04T01:15:09.627Z,1.37
2018-02-04T01:17:37.943Z,1.30
2018-02-04T01:20:06.255Z,1.27
2018-02-04T01:22:34.616Z,1.39
2018-02-04T01:25:02.923Z,1.32
2018-02-04T01:27:31.531Z,1.33
2018-02-04T01:30:00.323Z,1.43
2018-02-04T01:32:29.287Z,1.43
2018-02-04T01:34:58.271Z,1.40
2018-02-04T01:37:26.662Z,1.37
2018-02-04T01:39:54.980Z,1.52
2018-02-04T01:42:23.304Z,1.57
2018-02-04T01:44:51.639Z,1.43
2018-02-04T01:47:20.730Z,1.53
2018-02-04T01:49:49.647Z,1.56
2018-02-04T01:52:18.720Z,1.61
2018-02-04T01:54:47.048Z,1.48
2018-02-04T01:57:15.351Z,1.42
2018-02-04T01:59:44.057Z,1.47
2018-02-04T02:02:12.453Z,1.25
2018-02-04T02:04:41.519Z,1.18
2018-02-04T02:07:10.067Z,1.26
2018-02-04T02:09:38.368Z,1.25
2018-02-04T02:12:06.744Z,1.22
2018-02-04T02:14:35.071Z,1.23
2018-02-04T02:17:04.141Z,1.16
2018-02-04T02:19:32.482Z,1.15
2018-02-04T02:22:00.804Z,1.13
2018-02-04T02:24:29.146Z,1.08
2018-02-04T02:26:58.171Z,1.22
2018-02-04T02:29:28.505Z,1.20
2018-02-04T02:31:58.317Z,1.12
2018-02-04T02:34:28.104Z,1.16
2018-02-04T02:36:56.567Z,1.13
2018-02-04T02:39:25.052Z,1.12
2018-02-04T02:41:53.363Z,1.03
2018-02-04T02:44:22.140Z,0.93
2018-02-04T02:46:50.463Z,0.73
2018-02-04T02:49:18.839Z,0.63
2018-02-04T02:51:47.204Z,0.57
2018-02-04T02:54:15.516Z,0.58
2018-02-04T02:56:43.828Z,0.50
2018-02-04T02:59:12.865Z,0.51
2018-02-04T03:01:41.222Z,0.70
2018-02-04T03:04:09.545Z,0.43
2018-02-04T03:06:37.855Z,0.41
2018-02-04T03:09:06.655Z,0.38
2018-02-04T03:11:34.972Z,0.41
2018-02-04T03:14:03.292Z,0.43
2018-02-04T03:16:31.987Z,0.47
2018-02-04T03:19:00.332Z,0.62
2018-02-04T03:21:28.954Z,0.58
2018-02-04T03:23:57.295Z,0.63
2018-02-04T03:26:25.619Z,0.68
2018-02-04T03:28:54.051Z,0.53
2018-02-04T03:31:22.896Z,0.60
2018-02-04T03:33:51.711Z,0.66
2018-02-04T03:36:20.060Z,0.63
2018-02-04T03:38:49.252Z,0.69
2018-02-04T03:41:18.251Z,0.73
2018-02-04T03:43:46.729Z,0.75
2018-02-04T03:46:15.043Z,0.71
2018-02-04T03:48:43.770Z,0.65
2018-02-04T03:51:12.087Z,0.64
2018-02-04T03:53:40.247Z,0.68
2018-02-04T03:56:08.691Z,0.69
2018-02-04T03:58:37.004Z,0.75
2018-02-04T04:01:06.095Z,0.75
2018-02-04T04:03:35.244Z,0.73
2018-02-04T04:06:03.555Z,0.75
2018-02-04T04:08:31.880Z,0.82
2018-02-04T04:11:00.575Z,0.72
2018-02-04T04:13:28.887Z,0.69
2018-02-04T04:15:57.212Z,0.55
2018-02-04T04:18:25.555Z,0.69
2018-02-04T04:20:53.879Z,0.80
2018-02-04T04:23:22.239Z,0.81
2018-02-04T04:25:51.312Z,0.77
2018-02-04T04:28:20.416Z,0.80
2018-02-04T04:30:48.764Z,0.73
2018-02-04T04:33:17.077Z,0.82
2018-02-04T04:35:45.387Z,0.86
2018-02-04T04:38:14.032Z,0.87
2018-02-04T04:40:42.361Z,0.84
2018-02-04T04:43:10.676Z,0.86
2018-02-04T04:45:39.284Z,0.77
2018-02-04T04:48:07.603Z,0.83
2018-02-04T04:50:35.923Z,0.69
2018-02-04T04:53:05.060Z,0.55
2018-02-04T04:55:34.171Z,0.64
2018-02-04T04:58:02.486Z,0.43
2018-02-04T05:00:31.079Z,0.27
2018-02-04T05:02:59.391Z,0.31
2018-02-04T05:05:27.703Z,0.23
2018-02-04T05:07:56.039Z,0.23
2018-02-04T05:10:24.384Z,0.26
2018-02-04T05:12:52.696Z,0.31
2018-02-04T05:15:21.013Z,0.31
2018-02-04T05:17:49.356Z,0.19
2018-02-04T05:20:17.666Z,0.25
2018-02-04T05:22:46.027Z,0.23
2018-02-04T05:25:14.335Z,0.19
2018-02-04T05:27:42.651Z,0.19
2018-02-04T05:30:11.263Z,0.13
2018-02-04T05:32:39.571Z,0.03
2018-02-04T05:35:07.952Z,0.02
2018-02-04T05:37:36.626Z,-0.10
2018-02-04T05:40:04.944Z,-0.02
2018-02-04T05:42:34.025Z,-0.03
2018-02-04T05:45:02.720Z,-0.04
2018-02-04T05:47:31.807Z,-0.18
2018-02-04T05:50:00.120Z,-0.34
2018-02-04T05:52:28.483Z,-0.35
2018-02-04T05:54:56.800Z,-0.30
2018-02-04T05:57:25.123Z,-0.19
2018-02-04T05:59:53.568Z,-0.14
2018-02-04T06:02:21.879Z,-0.06
2018-02-04T06:04:50.195Z,0.03
2018-02-04T06:07:18.555Z,0.06
2018-02-04T06:09:46.873Z,0.00
2018-02-04T06:12:15.263Z,-0.10
2018-02-04T06:14:43.828Z,-0.27
2018-02-04T06:17:12.143Z,-0.25
2018-02-04T06:19:40.473Z,-0.31
2018-02-04T06:22:08.831Z,-0.40
2018-02-04T06:24:37.143Z,-0.54
2018-02-04T06:27:05.464Z,-0.57
2018-02-04T06:29:33.939Z,-0.44
2018-02-04T06:32:02.251Z,-0.40
2018-02-04T06:34:30.567Z,-0.20
2018-02-04T06:36:59.019Z,-0.13
2018-02-04T06:39:27.351Z,-0.05
2018-02-04T06:41:55.856Z,-0.02
2018-02-04T06:44:24.211Z,0.01
2018-02-04T06:46:52.519Z,0.12
2018-02-04T06:49:20.847Z,0.11
2018-02-04T06:51:50.387Z,0.11
2018-02-04T06:54:18.699Z,0.13
2018-02-04T06:56:47.011Z,0.15
2018-02-04T06:59:15.359Z,-0.02
2018-02-04T07:01:43.672Z,-0.18
2018-02-04T07:04:11.992Z,-0.30
2018-02-04T07:06:40.352Z,-0.41
2018-02-04T07:09:08.690Z,-0.49
2018-02-04T07:11:37.008Z,-0.60
2018-02-04T07:14:05.356Z,-0.74
2018-02-04T07:16:33.683Z,-0.72
2018-02-04T07:19:02.012Z,-0.75
2018-02-04T07:21:30.386Z,-0.76
2018-02-04T07:23:58.720Z,-0.73
2018-02-04T07:26:27.043Z,-0.72
2018-02-04T07:28:55.412Z,-0.63
2018-02-04T07:31:23.735Z,-0.50
2018-02-04T07:33:52.823Z,-0.26
2018-02-04T07:36:21.168Z,-0.07
2018-02-04T07:38:49.537Z,0.13
2018-02-04T07:41:17.908Z,0.31
2018-02-04T07:43:46.232Z,0.47
2018-02-04T07:46:14.543Z,0.65
2018-02-04T07:48:42.879Z,0.58
2018-02-04T07:51:11.201Z,0.75
2018-02-04T07:53:39.556Z,0.91
2018-02-04T07:56:07.918Z,0.98
2018-02-04T07:58:36.243Z,1.07
2018-02-04T08:01:04.552Z,1.08
2018-02-04T08:03:32.903Z,1.11
2018-02-04T08:06:01.231Z,1.31
2018-02-04T08:08:29.568Z,1.36
2018-02-04T08:10:58.247Z,1.41
2018-02-04T08:13:26.556Z,1.40
2018-02-04T08:15:54.876Z,1.50
2018-02-04T08:18:23.224Z,1.49
2018-02-04T08:20:52.259Z,1.62
2018-02-04T08:23:20.588Z,1.46
2018-02-04T08:25:49.795Z,1.48
2018-02-04T08:28:18.106Z,1.77
2018-02-04T08:30:46.420Z,2.10
2018-02-04T08:33:15.048Z,2.38
2018-02-04T08:35:43.431Z,2.58
2018-02-04T08:38:12.827Z,2.60
2018-02-04T08:40:41.899Z,2.65
2018-02-04T08:43:10.207Z,2.56
2018-02-04T08:45:38.987Z,2.68
2018-02-04T08:48:08.094Z,2.72
2018-02-04T08:50:37.159Z,2.72
2018-02-04T08:53:05.465Z,2.64
2018-02-04T08:55:34.838Z,3.04
2018-02-04T08:58:03.184Z,3.42
2018-02-04T09:00:31.512Z,3.94
2018-02-04T09:02:59.824Z,4.29
2018-02-04T09:05:28.983Z,4.47
2018-02-04T09:07:57.871Z,4.50
2018-02-04T09:10:26.252Z,4.34
2018-02-04T09:12:54.639Z,4.09
2018-02-04T09:15:23.351Z,4.88
2018-02-04T09:17:52.035Z,5.54
2018-02-04T09:20:20.352Z,5.93
2018-02-04T09:22:49.159Z,5.90
2018-02-04T09:25:17.515Z,6.12
2018-02-04T09:27:45.816Z,6.24
2018-02-04T09:30:14.120Z,7.38
2018-02-04T09:32:43.248Z,7.70
2018-02-04T09:35:11.559Z,7.33
2018-02-04T09:37:39.869Z,7.10
2018-02-04T09:40:08.329Z,7.04
2018-02-04T09:42:36.700Z,6.74
2018-02-04T09:45:05.595Z,6.60
2018-02-04T09:47:34.196Z,6.42
2018-02-04T09:50:02.517Z,6.16
2018-02-04T09:52:30.816Z,6.19
2018-02-04T09:54:59.167Z,6.65
2018-02-04T09:57:27.467Z,7.22
2018-02-04T09:59:56.720Z,7.67
2018-02-04T10:02:25.339Z,8.38
2018-02-04T10:04:53.657Z,8.72
2018-02-04T10:07:24.679Z,8.15
2018-02-04T10:09:53.300Z,7.53
2018-02-04T10:12:21.606Z,7.20
2018-02-04T10:14:49.905Z,6.81
2018-02-04T10:17:18.240Z,6.57
2018-02-04T10:19:47.107Z,5.89
2018-02-04T10:22:15.713Z,5.59
2018-02-04T10:24:44.787Z,5.57
2018-02-04T10:27:13.676Z,5.68
2018-02-04T10:29:42.000Z,5.32
2018-02-04T10:32:10.305Z,5.31
2018-02-04T10:34:38.916Z,5.54
2018-02-04T10:37:07.224Z,5.60
2018-02-04T10:39:35.522Z,5.13
2018-02-04T10:42:03.861Z,5.11
2018-02-04T10:44:32.295Z,4.67
2018-02-04T10:47:00.648Z,4.64
2018-02-04T10:49:28.957Z,4.47
2018-02-04T10:52:02.231Z,4.46
2018-02-04T10:54:30.544Z,4.54
2018-02-04T10:56:58.861Z,4.88
2018-02-04T10:59:27.207Z,4.76
2018-02-04T11:01:56.279Z,5.29
2018-02-04T11:04:24.579Z,5.65
2018-02-04T11:06:52.927Z,6.09
2018-02-04T11:09:21.232Z,6.29
2018-02-04T11:11:49.543Z,6.45
2018-02-04T11:14:18.208Z,6.61
2018-02-04T11:16:46.520Z,6.85
2018-02-04T11:19:15.475Z,5.88
2018-02-04T11:21:44.575Z,5.86
2018-02-04T11:24:12.899Z,5.78
2018-02-04T11:26:41.218Z,5.58
2018-02-04T11:29:09.815Z,5.36
2018-02-04T11:31:38.884Z,5.17
2018-02-04T11:34:07.188Z,5.01
2018-02-04T11:36:36.280Z,4.86
2018-02-04T11:39:05.377Z,4.97
2018-02-04T11:41:34.736Z,4.83
2018-02-04T11:44:03.035Z,4.90
2018-02-04T11:46:31.343Z,4.60
2018-02-04T11:48:59.719Z,4.60
2018-02-04T11:51:28.045Z,4.91
2018-02-04T11:53:56.379Z,4.89
2018-02-04T11:56:25.035Z,4.63
2018-02-04T11:58:53.341Z,4.70
2018-02-04T12:01:21.652Z,4.84
2018-02-04T12:03:50.341Z,4.80
2018-02-04T12:06:18.643Z,4.93
2018-02-04T12:08:47.400Z,5.06
2018-02-04T12:11:15.936Z,4.94
2018-02-04T12:13:44.236Z,4.85
2018-02-04T12:16:12.536Z,5.33
2018-02-04T12:18:41.139Z,5.62
2018-02-04T12:21:09.448Z,5.88
2018-02-04T12:23:38.524Z,6.38
2018-02-04T12:26:07.043Z,6.59
2018-02-04T12:28:35.363Z,6.85
2018-02-04T12:31:03.735Z,6.97
2018-02-04T12:33:32.071Z,6.23
2018-02-04T12:36:00.378Z,6.43
2018-02-04T12:38:30.504Z,6.76
2018-02-04T12:40:58.815Z,6.94
2018-02-04T12:43:27.158Z,6.97
2018-02-04T12:45:55.467Z,6.81
2018-02-04T12:48:24.689Z,6.33
2018-02-04T12:50:54.128Z,6.23
2018-02-04T12:53:22.476Z,6.23
2018-02-04T12:55:51.543Z,6.18
2018-02-04T12:58:20.169Z,6.37
2018-02-04T13:00:48.506Z,6.62
2018-02-04T13:03:16.811Z,6.46
2018-02-04T13:05:45.914Z,6.46
2018-02-04T13:08:14.979Z,6.54
2018-02-04T13:10:43.288Z,6.47
2018-02-04T13:13:12.664Z,6.46
2018-02-04T13:15:40.983Z,6.43
2018-02-04T13:18:09.301Z,6.62
2018-02-04T13:20:37.639Z,6.47
2018-02-04T13:23:05.943Z,6.76
2018-02-04T13:25:34.971Z,6.97
2018-02-04T13:28:03.295Z,7.01
2018-02-04T13:30:31.603Z,6.78
2018-02-04T13:33:00.213Z,6.33
2018-02-04T13:35:28.528Z,6.64
2018-02-04T13:37:56.834Z,6.92
2018-02-04T13:40:25.160Z,6.98
2018-02-04T13:42:53.517Z,6.76
2018-02-04T13:45:22.343Z,6.81
2018-02-04T13:47:50.655Z,6.99
2018-02-04T13:50:19.165Z,6.90
2018-02-04T13:52:47.519Z,6.45
2018-02-04T13:55:15.867Z,5.77
2018-02-04T13:57:44.183Z,4.47
2018-02-04T14:00:12.735Z,3.96
2018-02-04T14:02:41.035Z,3.53
2018-02-04T14:05:09.336Z,3.44
2018-02-04T14:07:39.177Z,3.33
2018-02-04T14:10:08.247Z,2.74
2018-02-04T14:12:36.544Z,2.33
2018-02-04T14:15:05.672Z,2.29
2018-02-04T14:17:34.552Z,1.90
2018-02-04T14:20:02.869Z,1.78
2018-02-04T14:22:31.236Z,1.61
2018-02-04T14:24:59.547Z,1.49
2018-02-04T14:27:27.856Z,1.42
2018-02-04T14:29:56.519Z,1.38
2018-02-04T14:32:25.588Z,1.31
2018-02-04T14:34:53.938Z,1.13
2018-02-04T14:37:22.517Z,1.10
2018-02-04T14:39:50.832Z,0.95
2018-02-04T14:42:19.148Z,0.94
2018-02-04T14:44:47.832Z,0.86
2018-02-04T14:47:16.188Z,0.73
2018-02-04T14:49:44.471Z,0.51
2018-02-04T14:52:12.847Z,0.37
2018-02-04T14:54:41.919Z,0.31
2018-02-04T14:57:10.228Z,0.24
2018-02-04T14:59:39.355Z,0.28
2018-02-04T15:02:07.663Z,0.30
2018-02-04T15:04:35.996Z,0.33
2018-02-04T15:07:04.333Z,0.25
2018-02-04T15:09:32.651Z,0.19
2018-02-04T15:12:00.963Z,0.19
2018-02-04T15:14:29.308Z,0.20
2018-02-04T15:16:57.642Z,0.13
2018-02-04T15:19:25.946Z,0.14
2018-02-04T15:21:55.334Z,0.09
2018-02-04T15:24:23.747Z,0.08
2018-02-04T15:26:52.073Z,0.03
2018-02-04T15:29:20.423Z,-0.01
2018-02-04T15:31:48.760Z,-0.03
2018-02-04T15:34:17.108Z,-0.03
2018-02-04T15:36:45.487Z,0.01
2018-02-04T15:39:14.607Z,0.00
2018-02-04T15:41:43.683Z,0.01
2018-02-04T15:44:12.429Z,-0.02
2018-02-04T15:46:40.740Z,0.03
2018-02-04T15:49:09.059Z,0.06
2018-02-04T15:51:37.709Z,0.02
2018-02-04T15:54:06.015Z,0.08
2018-02-04T15:56:34.336Z,0.10
2018-02-04T15:59:02.452Z,0.08
2018-02-04T16:01:31.535Z,0.03
2018-02-04T16:03:59.847Z,0.10
2018-02-04T16:06:28.207Z,0.05
2018-02-04T16:08:56.549Z,0.08
2018-02-04T16:11:24.863Z,0.06
2018-02-04T16:13:54.876Z,0.06
2018-02-04T16:16:23.192Z,0.03
2018-02-04T16:18:51.516Z,0.03
2018-02-04T16:21:19.884Z,0.00
2018-02-04T16:23:48.200Z,-0.04
2018-02-04T16:26:17.191Z,-0.04
2018-02-04T16:28:45.551Z,-0.06
2018-02-04T16:31:13.918Z,-0.01
2018-02-04T16:33:42.227Z,-0.06
2018-02-04T16:36:11.815Z,-0.02
2018-02-04T16:38:40.147Z,-0.02
2018-02-04T16:41:08.468Z,-0.06
2018-02-04T16:43:36.815Z,0.00
2018-02-04T16:46:05.136Z,-0.12
2018-02-04T16:48:33.457Z,-0.07
2018-02-04T16:51:01.900Z,-0.02
2018-02-04T16:53:30.224Z,-0.05
2018-02-04T16:55:58.545Z,-0.04
2018-02-04T16:58:27.928Z,-0.04
2018-02-04T17:00:56.258Z,-0.01
2018-02-04T17:03:24.579Z,-0.02
2018-02-04T17:05:52.929Z,-0.01
2018-02-04T17:08:22.690Z,-0.03
2018-02-04T17:10:50.915Z,-0.05
2018-02-04T17:13:19.284Z,0.07
2018-02-04T17:15:47.419Z,0.01
2018-02-04T17:18:16.316Z,-0.07
2018-02-04T17:20:45.391Z,-0.05
2018-02-04T17:23:13.704Z,-0.05
2018-02-04T17:25:42.344Z,-0.09
2018-02-04T17:28:10.667Z,-0.08
2018-02-04T17:30:38.992Z,-0.06
2018-02-04T17:33:08.120Z,-0.04
2018-02-04T17:35:36.453Z,-0.05
2018-02-04T17:38:04.772Z,-0.06
2018-02-04T17:40:33.940Z,-0.14
2018-02-04T17:43:02.272Z,-0.11
2018-02-04T17:45:30.595Z,-0.15
2018-02-04T17:48:00.156Z,-0.10
2018-02-04T17:50:28.492Z,-0.16
2018-02-04T17:52:56.867Z,-0.18
2018-02-04T17:55:25.182Z,-0.19
2018-02-04T17:57:54.273Z,-0.22
2018-02-04T18:00:23.374Z,-0.18
2018-02-04T18:02:52.501Z,-0.21
2018-02-04T18:05:20.934Z,-0.16
2018-02-04T18:07:49.251Z,-0.18
2018-02-04T18:10:17.905Z,-0.15
2018-02-04T18:12:46.241Z,-0.15
2018-02-04T18:15:14.568Z,-0.15
2018-02-04T18:17:42.848Z,-0.13
2018-02-04T18:20:11.172Z,-0.11
2018-02-04T18:22:39.504Z,-0.09
2018-02-04T18:25:08.652Z,-0.09
2018-02-04T18:27:36.979Z,-0.11
2018-02-04T18:30:05.299Z,-0.15
2018-02-04T18:32:34.443Z,-0.17
2018-02-04T18:35:03.569Z,-0.18
2018-02-04T18:37:32.247Z,-0.15
2018-02-04T18:40:00.584Z,-0.17
2018-02-04T18:42:29.844Z,-0.07
2018-02-04T18:44:58.236Z,-0.01
2018-02-04T18:47:26.566Z,-0.09
2018-02-04T18:49:54.946Z,-0.13
2018-02-04T18:52:23.504Z,-0.13
2018-02-04T18:54:51.864Z,-0.08
2018-02-04T18:57:20.183Z,-0.06
2018-02-04T18:59:48.500Z,-0.07
2018-02-04T19:02:16.875Z,-0.10
2018-02-04T19:04:45.715Z,-0.07
2018-02-04T19:07:14.246Z,-0.04
2018-02-04T19:09:43.270Z,-0.06
2018-02-04T19:12:12.085Z,-0.12
2018-02-04T19:14:40.512Z,-0.06
2018-02-04T19:17:08.840Z,-0.18
2018-02-04T19:19:37.160Z,-0.20
2018-02-04T19:22:05.909Z,-0.19
2018-02-04T19:24:35.041Z,-0.18
2018-02-04T19:27:03.439Z,-0.17
2018-02-04T19:29:31.808Z,-0.17
2018-02-04T19:32:00.166Z,-0.08
2018-02-04T19:34:28.498Z,-0.15
2018-02-04T19:36:57.652Z,-0.12
2018-02-04T19:39:25.971Z,-0.14
2018-02-04T19:41:54.312Z,-0.18
2018-02-04T19:44:22.668Z,-0.14
2018-02-04T19:46:51.004Z,-0.22
2018-02-04T19:49:19.627Z,-0.17
2018-02-04T19:51:47.999Z,-0.23
2018-02-04T19:54:16.876Z,-0.17
2018-02-04T19:56:45.259Z,-0.16
2018-02-04T19:59:13.587Z,-0.17
2018-02-04T20:01:42.001Z,-0.16
2018-02-04T20:04:10.383Z,-0.17
2018-02-04T20:06:38.747Z,-0.14
2018-02-04T20:09:07.136Z,-0.16
2018-02-04T20:11:35.485Z,-0.16
2018-02-04T20:14:04.104Z,-0.11
2018-02-04T20:16:32.558Z,0.00
2018-02-04T20:19:01.438Z,-0.07
2018-02-04T20:21:30.048Z,0.03
2018-02-04T20:23:58.396Z,0.05
2018-02-04T20:26:26.708Z,-0.03
2018-02-04T20:28:55.115Z,0.05
2018-02-04T20:31:23.516Z,0.03
2018-02-04T20:34:09.884Z,-0.03
2018-02-04T20:36:38.272Z,0.05
2018-02-04T20:39:06.661Z,0.12
2018-02-04T20:41:36.241Z,0.14
2018-02-04T20:44:04.602Z,0.16
2018-02-04T20:46:32.976Z,0.06
2018-02-04T20:49:01.351Z,0.06
2018-02-04T20:51:29.664Z,0.08
2018-02-04T20:53:58.760Z,0.08
2018-02-04T20:56:28.071Z,0.16
2018-02-04T20:58:56.386Z,0.17
2018-02-04T21:01:24.810Z,0.11
2018-02-04T21:03:53.207Z,0.04
2018-02-04T21:06:21.619Z,-0.08
2018-02-04T21:08:50.083Z,0.01
2018-02-04T21:11:18.401Z,-0.04
2018-02-04T21:13:46.815Z,-0.06
2018-02-04T21:16:15.412Z,0.05
2018-02-04T21:18:43.735Z,-0.01
2018-02-04T21:21:12.087Z,-0.01
2018-02-04T21:23:40.443Z,-0.02
2018-02-04T21:26:08.807Z,-0.05
2018-02-04T21:28:37.949Z,-0.09
2018-02-04T21:31:07.562Z,0.03
2018-02-04T21:33:35.910Z,0.09
2018-02-04T21:36:04.232Z,0.15
2018-02-04T21:38:33.249Z,0.08
2018-02-04T21:41:01.620Z,0.15
2018-02-04T21:43:29.773Z,0.08
2018-02-04T21:45:58.099Z,0.06
2018-02-04T21:48:26.512Z,0.06
2018-02-04T21:50:55.482Z,0.04
2018-02-04T21:53:23.860Z,0.14
2018-02-04T21:55:52.918Z,0.03
2018-02-04T21:58:21.239Z,0.01
2018-02-04T22:00:50.636Z,0.14
2018-02-04T22:03:19.103Z,0.27
2018-02-04T22:05:47.433Z,0.24
2018-02-04T22:08:15.639Z,0.29
2018-02-04T22:10:43.956Z,0.20
2018-02-04T22:13:12.276Z,0.27
2018-02-04T22:15:41.387Z,0.18
2018-02-04T22:18:09.717Z,0.14
2018-02-04T22:20:38.028Z,0.05
2018-02-04T22:23:06.383Z,0.03
2018-02-04T22:25:34.704Z,0.07
2018-02-04T22:28:03.028Z,-0.09
2018-02-04T22:30:31.868Z,-0.04
2018-02-04T22:33:00.193Z,-0.01
2018-02-04T22:35:28.500Z,0.09
2018-02-04T22:37:57.984Z,0.11
2018-02-04T22:40:26.348Z,0.05
2018-02-04T22:42:54.668Z,0.04
2018-02-04T22:45:23.043Z,0.04
2018-02-04T22:47:51.359Z,0.01
2018-02-04T22:50:19.819Z,-0.14
2018-02-04T22:52:48.259Z,-0.14
2018-02-04T22:55:16.580Z,-0.17
2018-02-04T22:57:44.908Z,-0.24
2018-02-04T23:00:13.552Z,-0.20
2018-02-04T23:02:42.860Z,-0.17
2018-02-04T23:05:11.943Z,-0.14
2018-02-04T23:07:41.064Z,-0.24
2018-02-04T23:10:09.379Z,-0.26
2018-02-04T23:12:37.704Z,-0.28
2018-02-04T23:15:06.087Z,-0.28
2018-02-04T23:17:35.172Z,-0.22
2018-02-04T23:20:04.299Z,-0.31
2018-02-04T23:22:33.408Z,-0.24
2018-02-04T23:25:01.731Z,-0.19
2018-02-04T23:27:30.116Z,-0.13
2018-02-04T23:29:59.692Z,-0.23
2018-02-04T23:32:28.020Z,-0.24
2018-02-04T23:34:56.351Z,-0.12
2018-02-04T23:37:24.779Z,-0.04
2018-02-04T23:39:53.096Z,-0.17
2018-02-04T23:42:21.819Z,-0.13
2018-02-04T23:44:50.224Z,-0.09
2018-02-04T23:47:18.539Z,-0.05
2018-02-04T23:49:46.905Z,-0.03
2018-02-04T23:52:15.234Z,-0.07
2018-02-04T23:54:43.565Z,-0.09
2018-02-04T23:57:11.903Z,-0.16
2018-02-04T23:59:40.228Z,-0.24
